createdAt,value
2019-01-30T08:49:54.596Z,6.90
2019-01-30T08:50:30.304Z,9.33
2019-01-30T08:51:06.857Z,4.92
2019-01-30T08:51:44.332Z,6.45
2019-01-30T08:52:20.410Z,10.43
2019-01-30T08:52:56.164Z,6.80
2019-01-30T08:53:33.121Z,8.40
2019-01-30T08:54:08.795Z,7.62
2019-01-30T08:54:44.859Z,7.70
2019-01-30T08:55:20.845Z,13.55
2019-01-30T08:55:56.984Z,7.55
2019-01-30T08:56:38.777Z,7.03
2019-01-30T08:57:10.121Z,8.95
2019-01-30T08:57:45.813Z,8.25
2019-01-30T08:58:22.314Z,12.50
2019-01-30T08:58:58.371Z,6.95
2019-01-30T08:59:34.380Z,9.50
2019-01-30T09:00:13.466Z,8.03
2019-01-30T09:00:49.167Z,7.75
2019-01-30T09:01:24.847Z,13.68
2019-01-30T09:02:00.681Z,10.05
2019-01-30T09:02:36.985Z,9.20
2019-01-30T09:03:14.889Z,9.95
2019-01-30T09:03:50.669Z,7.62
2019-01-30T09:04:28.733Z,10.25
2019-01-30T09:05:05.337Z,7.75
2019-01-30T09:05:41.034Z,7.83
2019-01-30T09:06:17.337Z,8.43
2019-01-30T09:06:53.589Z,9.05
2019-01-30T09:07:29.304Z,7.47
2019-01-30T09:08:05.037Z,6.35
2019-01-30T09:08:40.728Z,8.58
2019-01-30T09:09:16.496Z,6.87
2019-01-30T09:09:52.501Z,7.47
2019-01-30T09:10:28.736Z,10.23
2019-01-30T09:11:04.469Z,8.68
2019-01-30T09:11:40.142Z,7.30
2019-01-30T09:12:15.933Z,5.55
2019-01-30T09:12:51.630Z,7.35
2019-01-30T09:13:27.342Z,7.85
2019-01-30T09:14:03.117Z,7.10
2019-01-30T09:14:39.086Z,3.87
2019-01-30T09:15:16.696Z,7.87
2019-01-30T09:15:52.382Z,6.92
2019-01-30T09:16:28.085Z,9.38
2019-01-30T09:17:08.323Z,4.20
2019-01-30T09:17:41.583Z,5.35
2019-01-30T09:18:17.537Z,8.95
2019-01-30T09:18:53.237Z,6.35
2019-01-30T09:19:29.213Z,13.58
2019-01-30T09:20:06.332Z,6.62
2019-01-30T09:20:42.012Z,8.38
2019-01-30T09:21:18.602Z,6.33
2019-01-30T09:21:54.233Z,6.37
2019-01-30T09:22:31.005Z,12.43
2019-01-30T09:23:07.009Z,6.08
2019-01-30T09:23:42.987Z,8.68
2019-01-30T09:24:18.650Z,8.18
2019-01-30T09:24:55.406Z,10.38
2019-01-30T09:25:31.097Z,6.95
2019-01-30T09:26:06.784Z,10.25
2019-01-30T09:26:42.831Z,6.80
2019-01-30T09:27:18.840Z,5.08
2019-01-30T09:27:54.884Z,5.17
2019-01-30T09:28:30.562Z,7.05
2019-01-30T09:29:06.587Z,5.37
2019-01-30T09:29:42.278Z,5.33
2019-01-30T09:30:20.252Z,12.90
2019-01-30T09:30:55.967Z,6.67
2019-01-30T09:31:32.766Z,8.15
2019-01-30T09:32:08.736Z,8.05
2019-01-30T09:32:44.452Z,5.03
2019-01-30T09:33:25.900Z,6.22
2019-01-30T09:33:57.813Z,7.20
2019-01-30T09:34:33.541Z,12.03
2019-01-30T09:35:10.480Z,13.38
2019-01-30T09:35:46.190Z,7.42
2019-01-30T09:36:21.977Z,17.75
2019-01-30T09:36:57.761Z,9.63
2019-01-30T09:37:33.656Z,6.33
2019-01-30T09:38:09.764Z,5.30
2019-01-30T09:38:45.540Z,9.35
2019-01-30T09:39:21.232Z,8.35
2019-01-30T09:39:56.919Z,12.65
2019-01-30T09:40:32.816Z,7.00
2019-01-30T09:41:08.565Z,9.30
2019-01-30T09:41:44.643Z,7.85
2019-01-30T09:42:20.425Z,5.70
2019-01-30T09:42:56.281Z,7.83
2019-01-30T09:43:32.761Z,13.62
2019-01-30T09:44:09.112Z,10.05
2019-01-30T09:44:44.779Z,12.10
2019-01-30T09:45:21.960Z,8.13
2019-01-30T09:45:57.715Z,10.28
2019-01-30T09:46:33.444Z,11.45
2019-01-30T09:47:09.245Z,12.47
2019-01-30T09:47:45.491Z,9.28
2019-01-30T09:48:23.583Z,5.55
2019-01-30T09:48:59.314Z,10.58
2019-01-30T09:49:35.554Z,7.55
2019-01-30T09:50:13.531Z,7.20
2019-01-30T09:50:49.205Z,9.08
2019-01-30T09:51:24.876Z,9.63
2019-01-30T09:52:00.918Z,10.50
2019-01-30T09:52:36.695Z,7.50
2019-01-30T09:53:12.698Z,6.90
2019-01-30T09:53:48.394Z,6.45
2019-01-30T09:54:24.068Z,8.43
2019-01-30T09:54:59.736Z,8.65
2019-01-30T09:55:35.416Z,8.10
2019-01-30T09:56:12.181Z,5.90
2019-01-30T09:56:48.926Z,7.85
2019-01-30T09:57:24.738Z,7.55
2019-01-30T09:58:00.981Z,7.47
2019-01-30T09:58:37.253Z,6.72
2019-01-30T09:59:12.954Z,7.87
2019-01-30T09:59:48.618Z,10.90
2019-01-30T10:00:30.011Z,10.53
2019-01-30T10:01:18.234Z,9.03
2019-01-30T10:01:54.198Z,7.92
2019-01-30T10:14:48.747Z,5.15
2019-01-30T10:26:10.772Z,12.88
2019-01-30T10:26:46.443Z,13.22
2019-01-30T10:27:22.349Z,12.88
2019-01-30T10:27:57.996Z,14.00
2019-01-30T10:28:33.644Z,15.08
2019-01-30T10:29:09.575Z,15.32
2019-01-30T10:29:45.228Z,15.20
2019-01-30T10:30:27.126Z,15.55
2019-01-30T10:31:02.869Z,17.87
2019-01-30T10:31:39.147Z,16.35
2019-01-30T10:32:16.018Z,17.15
2019-01-30T10:32:51.664Z,20.27
2019-01-30T10:33:27.605Z,17.37
2019-01-30T10:34:03.309Z,18.67
2019-01-30T10:34:40.090Z,17.40
2019-01-30T10:35:15.751Z,19.93
2019-01-30T10:35:51.487Z,18.67
2019-01-30T10:36:27.311Z,20.07
2019-01-30T10:37:03.703Z,19.60
2019-01-30T10:37:39.907Z,21.80
2019-01-30T10:38:15.715Z,19.30
2019-01-30T10:38:51.368Z,19.57
2019-01-30T10:39:27.331Z,22.20
2019-01-30T10:40:05.531Z,21.00
2019-01-30T10:40:41.244Z,21.60
2019-01-30T10:41:16.915Z,21.40
2019-01-30T10:41:52.567Z,24.10
2019-01-30T10:42:28.223Z,22.40
2019-01-30T10:43:03.908Z,24.53
2019-01-30T10:43:39.561Z,27.07
2019-01-30T10:44:15.273Z,26.60
2019-01-30T10:44:50.988Z,26.60
2019-01-30T10:45:26.727Z,26.50
2019-01-30T10:46:02.399Z,27.33
2019-01-30T10:46:38.365Z,29.00
2019-01-30T10:47:14.400Z,27.80
2019-01-30T10:47:50.310Z,24.60
2019-01-30T10:48:26.263Z,28.77
2019-01-30T10:49:01.902Z,29.17
2019-01-30T10:49:37.571Z,32.47
2019-01-30T10:50:15.375Z,34.10
2019-01-30T10:50:51.010Z,32.03
2019-01-30T10:51:26.993Z,32.00
2019-01-30T10:52:02.707Z,33.87
2019-01-30T10:52:38.342Z,33.23
2019-01-30T10:53:14.012Z,33.13
2019-01-30T10:53:50.268Z,36.20
2019-01-30T10:54:25.911Z,32.73
2019-01-30T10:55:01.595Z,38.03
2019-01-30T10:55:37.349Z,37.97
2019-01-30T10:56:12.976Z,37.33
2019-01-30T10:56:48.660Z,41.70
2019-01-30T10:57:24.515Z,37.67
2019-01-30T10:58:02.107Z,39.83
2019-01-30T10:58:38.012Z,36.67
2019-01-30T10:59:13.676Z,42.40
2019-01-30T10:59:49.563Z,34.37
2019-01-30T11:00:28.027Z,40.40
2019-01-30T11:01:04.024Z,38.90
2019-01-30T11:01:39.659Z,39.17
2019-01-30T11:02:15.311Z,41.60
2019-01-30T11:02:50.980Z,43.23
2019-01-30T11:03:27.588Z,41.83
2019-01-30T11:04:03.247Z,43.73
2019-01-30T11:04:38.930Z,39.90
2019-01-30T11:05:15.513Z,47.00
2019-01-30T11:05:51.504Z,49.07
2019-01-30T11:06:27.552Z,36.53
2019-01-30T11:07:04.207Z,38.27
2019-01-30T11:07:40.137Z,41.50
2019-01-30T11:08:17.170Z,42.00
2019-01-30T11:08:52.858Z,39.53
2019-01-30T11:09:28.539Z,47.10
2019-01-30T11:10:04.923Z,43.37
2019-01-30T11:10:40.587Z,42.33
2019-01-30T11:11:16.267Z,38.77
2019-01-30T11:11:51.910Z,47.53
2019-01-30T11:12:27.640Z,46.67
2019-01-30T11:13:03.298Z,45.23
2019-01-30T11:13:39.229Z,42.27
2019-01-30T11:14:14.892Z,47.07
2019-01-30T11:14:50.838Z,45.77
2019-01-30T11:15:27.075Z,49.73
2019-01-30T11:16:02.768Z,44.80
2019-01-30T11:16:38.739Z,46.13
2019-01-30T11:17:14.424Z,51.00
2019-01-30T11:17:50.365Z,44.17
2019-01-30T11:18:26.023Z,57.77
2019-01-30T11:19:01.666Z,48.40
2019-01-30T11:19:37.307Z,49.20
2019-01-30T11:20:14.713Z,47.50
2019-01-30T11:20:50.351Z,48.80
2019-01-30T11:21:26.306Z,53.27
2019-01-30T11:22:02.231Z,48.17
2019-01-30T11:22:37.877Z,43.00
2019-01-30T11:23:13.515Z,48.30
2019-01-30T11:23:49.159Z,46.47
2019-01-30T11:24:24.842Z,48.17
2019-01-30T11:25:00.487Z,42.13
2019-01-30T11:25:37.159Z,49.40
2019-01-30T11:26:13.144Z,43.67
2019-01-30T11:26:48.796Z,49.40
2019-01-30T11:27:24.499Z,49.73
2019-01-30T11:28:00.215Z,50.93
2019-01-30T11:28:35.851Z,53.17
2019-01-30T11:29:11.519Z,53.30
2019-01-30T11:29:47.460Z,60.37
2019-01-30T11:30:23.091Z,48.77
2019-01-30T11:30:58.742Z,52.43
2019-01-30T11:31:34.643Z,52.17
2019-01-30T11:32:10.323Z,45.20
2019-01-30T11:32:45.990Z,50.30
2019-01-30T11:33:21.986Z,50.00
2019-01-30T11:34:07.013Z,49.77
2019-01-30T11:34:34.987Z,44.33
2019-01-30T11:35:10.672Z,45.90
2019-01-30T11:35:46.303Z,44.87
2019-01-30T11:36:21.932Z,53.40
2019-01-30T11:37:00.036Z,52.70
2019-01-30T11:37:35.278Z,51.07
2019-01-30T11:38:10.938Z,44.27
2019-01-30T11:38:46.900Z,44.27
2019-01-30T11:39:22.815Z,50.27
2019-01-30T11:39:59.043Z,46.60
2019-01-30T11:40:34.705Z,48.57
2019-01-30T11:41:10.355Z,45.57
2019-01-30T11:41:46.026Z,49.07
2019-01-30T11:42:21.662Z,48.77
2019-01-30T11:42:57.570Z,48.10
2019-01-30T11:43:33.242Z,46.07
2019-01-30T11:44:08.911Z,47.67
2019-01-30T11:44:44.554Z,46.53
2019-01-30T11:45:28.567Z,44.57
2019-01-30T11:46:04.235Z,52.27
2019-01-30T11:46:40.180Z,51.23
2019-01-30T11:47:15.850Z,51.47
2019-01-30T11:47:51.503Z,45.30
2019-01-30T11:48:27.188Z,49.23
2019-01-30T11:49:02.832Z,50.57
2019-01-30T11:49:38.502Z,44.17
2019-01-30T11:50:14.321Z,49.93
2019-01-30T11:50:49.991Z,43.30
2019-01-30T11:51:25.619Z,46.37
2019-01-30T11:52:01.253Z,43.53
2019-01-30T11:52:36.947Z,49.17
2019-01-30T11:53:12.615Z,46.93
2019-01-30T11:53:48.267Z,42.37
2019-01-30T11:54:24.268Z,40.17
2019-01-30T11:54:59.923Z,42.37
2019-01-30T11:55:35.851Z,47.87
2019-01-30T11:56:11.651Z,43.10
2019-01-30T11:56:47.735Z,42.63
2019-01-30T11:57:24.308Z,41.20
2019-01-30T11:57:59.947Z,45.23
2019-01-30T11:58:35.584Z,42.00
2019-01-30T11:59:11.349Z,42.47
2019-01-30T11:59:47.277Z,36.70
2019-01-30T12:00:27.573Z,43.93
2019-01-30T12:01:04.500Z,37.80
2019-01-30T12:01:40.202Z,39.57
2019-01-30T12:02:15.854Z,43.40
2019-01-30T12:02:51.486Z,41.63
2019-01-30T12:03:27.155Z,37.90
2019-01-30T12:04:02.797Z,45.43
2019-01-30T12:04:38.738Z,39.30
2019-01-30T12:05:14.985Z,39.23
2019-01-30T12:05:50.654Z,37.10
2019-01-30T12:06:26.835Z,37.67
2019-01-30T12:07:03.692Z,40.87
2019-01-30T12:07:39.340Z,47.40
2019-01-30T12:08:15.063Z,38.27
2019-01-30T12:08:50.994Z,43.50
2019-01-30T12:09:26.684Z,43.07
2019-01-30T12:10:02.340Z,41.03
2019-01-30T12:10:39.546Z,43.33
2019-01-30T12:11:15.202Z,45.67
2019-01-30T12:11:50.838Z,39.30
2019-01-30T12:12:26.780Z,35.50
2019-01-30T12:13:02.450Z,41.47
2019-01-30T12:13:38.754Z,45.83
2019-01-30T12:14:14.418Z,38.97
2019-01-30T12:14:50.067Z,34.60
2019-01-30T12:15:25.714Z,36.83
2019-01-30T12:16:01.388Z,41.63
2019-01-30T12:16:37.075Z,47.73
2019-01-30T12:17:12.870Z,42.73
2019-01-30T12:17:48.588Z,36.20
2019-01-30T12:18:24.232Z,36.53
2019-01-30T12:18:59.874Z,41.50
2019-01-30T12:19:36.860Z,41.33
2019-01-30T12:20:12.528Z,36.73
2019-01-30T12:20:48.183Z,36.77
2019-01-30T12:21:23.823Z,41.67
2019-01-30T12:21:59.798Z,41.67
2019-01-30T12:22:35.440Z,38.40
2019-01-30T12:23:11.196Z,47.63
2019-01-30T12:23:47.504Z,45.30
2019-01-30T12:24:23.458Z,42.87
2019-01-30T12:24:59.164Z,39.30
2019-01-30T12:25:34.836Z,40.27
2019-01-30T12:26:10.483Z,39.70
2019-01-30T12:26:46.144Z,40.07
2019-01-30T12:27:21.778Z,37.63
2019-01-30T12:27:57.455Z,39.33
2019-01-30T12:28:33.127Z,35.93
2019-01-30T12:29:08.771Z,37.50
2019-01-30T12:29:44.440Z,35.10
2019-01-30T12:30:22.948Z,37.80
2019-01-30T12:30:58.628Z,40.07
2019-01-30T12:31:34.567Z,40.60
2019-01-30T12:32:11.952Z,38.13
2019-01-30T12:32:47.598Z,39.23
2019-01-30T12:33:23.303Z,39.53
2019-01-30T12:33:59.249Z,34.50
2019-01-30T12:34:35.970Z,38.83
2019-01-30T12:35:11.614Z,38.47
2019-01-30T12:35:47.642Z,37.57
2019-01-30T12:36:23.386Z,38.90
2019-01-30T12:36:59.031Z,37.23
2019-01-30T12:37:34.768Z,43.37
2019-01-30T12:38:10.767Z,37.17
2019-01-30T12:38:47.388Z,39.33
2019-01-30T12:39:23.346Z,38.40
2019-01-30T12:39:58.984Z,37.40
2019-01-30T12:40:34.660Z,39.63
2019-01-30T12:41:10.382Z,39.20
2019-01-30T12:41:46.102Z,35.83
2019-01-30T12:42:22.743Z,40.70
2019-01-30T12:42:58.404Z,38.13
2019-01-30T12:43:34.856Z,34.57
2019-01-30T12:44:10.600Z,36.37
2019-01-30T12:44:46.515Z,35.77
2019-01-30T12:45:29.494Z,36.90
2019-01-30T12:46:05.195Z,41.20
2019-01-30T12:46:40.847Z,37.13
2019-01-30T12:47:19.918Z,37.57
2019-01-30T12:47:53.906Z,40.00
2019-01-30T12:48:29.535Z,35.43
2019-01-30T12:49:05.479Z,34.03
2019-01-30T12:49:41.120Z,39.03
2019-01-30T12:50:16.784Z,34.67
2019-01-30T12:50:52.418Z,39.60
2019-01-30T12:51:28.064Z,36.33
2019-01-30T12:52:04.072Z,36.20
2019-01-30T12:52:39.750Z,34.83
2019-01-30T12:53:15.433Z,33.13
2019-01-30T12:53:51.079Z,37.53
2019-01-30T12:54:26.748Z,41.23
2019-01-30T12:55:02.394Z,34.10
2019-01-30T12:55:38.047Z,36.17
2019-01-30T12:56:13.699Z,33.93
2019-01-30T12:56:49.363Z,34.63
2019-01-30T12:57:25.039Z,36.63
2019-01-30T12:58:00.684Z,33.27
2019-01-30T12:58:36.599Z,33.00
2019-01-30T12:59:12.266Z,33.47
2019-01-30T12:59:48.004Z,33.30
2019-01-30T13:00:25.600Z,32.87
2019-01-30T13:01:01.240Z,33.37
2019-01-30T13:01:37.231Z,32.13
2019-01-30T13:02:13.158Z,32.33
2019-01-30T13:02:49.249Z,31.50
2019-01-30T13:03:24.948Z,32.27
2019-01-30T13:04:00.985Z,37.63
2019-01-30T13:04:38.800Z,33.97
2019-01-30T13:05:14.024Z,34.00
2019-01-30T13:05:49.732Z,32.97
2019-01-30T13:06:25.370Z,32.93
2019-01-30T13:07:01.063Z,34.70
2019-01-30T13:07:36.691Z,36.03
2019-01-30T13:08:12.335Z,35.07
2019-01-30T13:08:47.983Z,36.57
2019-01-30T13:09:23.632Z,32.87
2019-01-30T13:09:59.310Z,33.97
2019-01-30T13:10:34.959Z,35.53
2019-01-30T13:11:10.648Z,33.07
2019-01-30T13:11:46.282Z,32.03
2019-01-30T13:12:21.924Z,31.53
2019-01-30T13:12:57.634Z,33.37
2019-01-30T13:13:33.716Z,31.53
2019-01-30T13:14:09.609Z,31.80
2019-01-30T13:14:45.560Z,32.50
2019-01-30T13:15:22.429Z,32.90
2019-01-30T13:15:58.055Z,32.00
2019-01-30T13:16:33.862Z,32.13
2019-01-30T13:17:11.248Z,31.10
2019-01-30T13:17:46.948Z,32.37
2019-01-30T13:18:22.627Z,32.77
2019-01-30T13:18:58.554Z,31.93
2019-01-30T13:19:34.196Z,34.30
2019-01-30T13:20:13.123Z,32.17
2019-01-30T13:20:48.749Z,32.20
2019-01-30T13:21:24.373Z,31.83
2019-01-30T13:22:00.070Z,31.80
2019-01-30T13:22:35.774Z,31.93
2019-01-30T13:23:11.426Z,31.80
2019-01-30T13:23:47.049Z,32.40
2019-01-30T13:24:22.679Z,30.43
2019-01-30T13:24:58.316Z,32.53
2019-01-30T13:25:35.670Z,32.23
2019-01-30T13:26:12.286Z,32.20
2019-01-30T13:26:47.951Z,31.40
2019-01-30T13:27:23.612Z,30.87
2019-01-30T13:27:59.299Z,31.10
2019-01-30T13:28:34.944Z,30.10
2019-01-30T13:29:10.592Z,31.10
2019-01-30T13:29:46.235Z,31.00
2019-01-30T13:30:24.178Z,31.47
2019-01-30T13:30:59.819Z,31.33
2019-01-30T13:31:35.761Z,33.33
2019-01-30T13:32:11.422Z,31.13
2019-01-30T13:32:48.040Z,31.23
2019-01-30T13:33:23.719Z,31.30
2019-01-30T13:33:59.372Z,30.13
2019-01-30T13:34:35.029Z,30.73
2019-01-30T13:35:13.684Z,32.17
2019-01-30T13:35:49.326Z,31.53
2019-01-30T13:36:24.995Z,31.50
2019-01-30T13:37:00.774Z,34.97
2019-01-30T13:37:36.510Z,30.20
2019-01-30T13:38:12.151Z,29.57
2019-01-30T13:38:48.163Z,35.73
2019-01-30T13:39:24.075Z,34.70
2019-01-30T13:39:59.771Z,30.20
2019-01-30T13:40:37.172Z,31.13
2019-01-30T13:41:12.839Z,33.93
2019-01-30T13:41:48.484Z,30.80
2019-01-30T13:42:24.237Z,30.83
2019-01-30T13:43:00.178Z,30.40
2019-01-30T13:43:35.867Z,31.07
2019-01-30T13:44:11.791Z,30.40
2019-01-30T13:44:47.542Z,31.03
2019-01-30T13:45:23.885Z,30.27
2019-01-30T13:46:05.477Z,29.87
2019-01-30T13:46:37.167Z,29.47
2019-01-30T13:47:12.799Z,30.07
2019-01-30T13:47:48.505Z,31.40
2019-01-30T13:48:24.505Z,30.03
2019-01-30T13:49:00.430Z,31.70
2019-01-30T13:49:36.691Z,29.77
2019-01-30T13:50:18.326Z,31.13
2019-01-30T13:50:54.007Z,30.33
2019-01-30T13:51:29.684Z,32.27
2019-01-30T13:52:05.323Z,32.80
2019-01-30T13:52:40.979Z,30.67
2019-01-30T13:53:17.005Z,32.10
2019-01-30T13:53:52.805Z,31.63
2019-01-30T13:54:28.467Z,31.93
2019-01-30T13:55:04.550Z,31.03
2019-01-30T13:55:40.284Z,33.73
2019-01-30T13:56:16.047Z,32.77
2019-01-30T13:56:51.712Z,30.60
2019-01-30T13:57:27.423Z,31.33
2019-01-30T13:58:05.871Z,30.70
2019-01-30T13:58:42.715Z,33.33
2019-01-30T13:59:18.572Z,32.77
2019-01-30T13:59:54.301Z,31.43
2019-01-30T14:00:31.990Z,32.30
2019-01-30T14:01:17.183Z,31.83
2019-01-30T14:01:45.272Z,30.50
2019-01-30T14:02:21.236Z,30.17
2019-01-30T14:02:56.971Z,30.53
2019-01-30T14:03:32.632Z,30.93
2019-01-30T14:04:08.276Z,30.93
2019-01-30T14:04:44.274Z,32.43
2019-01-30T14:05:19.932Z,29.13
2019-01-30T14:05:55.959Z,30.40
2019-01-30T14:06:31.893Z,30.07
2019-01-30T14:07:07.674Z,30.27
2019-01-30T14:07:43.555Z,30.20
2019-01-30T14:08:19.268Z,30.70
2019-01-30T14:08:55.079Z,32.10
2019-01-30T14:09:30.779Z,30.03
2019-01-30T14:10:06.471Z,36.03
2019-01-30T14:10:42.454Z,32.00
2019-01-30T14:11:18.200Z,33.33
2019-01-30T14:11:53.876Z,32.47
2019-01-30T14:12:29.608Z,29.10
2019-01-30T14:13:05.285Z,30.10
2019-01-30T14:13:41.062Z,29.53
2019-01-30T14:14:16.758Z,30.33
2019-01-30T14:14:52.411Z,29.73
2019-01-30T14:15:28.291Z,28.93
2019-01-30T14:16:03.944Z,30.30
2019-01-30T14:16:42.690Z,30.57
2019-01-30T14:17:18.479Z,30.43
2019-01-30T14:17:54.134Z,30.83
2019-01-30T14:18:30.099Z,29.87
2019-01-30T14:19:05.832Z,30.70
2019-01-30T14:19:41.519Z,30.53
2019-01-30T14:20:17.905Z,29.87
2019-01-30T14:20:53.668Z,28.80
2019-01-30T14:21:29.358Z,29.50
2019-01-30T14:22:05.070Z,29.23
2019-01-30T14:22:43.532Z,30.23
2019-01-30T14:23:19.306Z,30.93
2019-01-30T14:23:55.249Z,29.93
2019-01-30T14:24:31.316Z,31.10
2019-01-30T14:25:07.785Z,30.70
2019-01-30T14:25:43.417Z,30.83
2019-01-30T14:26:19.115Z,30.47
2019-01-30T14:26:54.851Z,29.53
2019-01-30T14:27:30.569Z,29.13
2019-01-30T14:28:06.485Z,30.53
2019-01-30T14:28:42.274Z,28.77
2019-01-30T14:29:18.048Z,29.17
2019-01-30T14:29:58.265Z,31.03
2019-01-30T14:30:33.569Z,30.90
2019-01-30T14:31:09.573Z,30.30
2019-01-30T14:31:45.457Z,28.93
2019-01-30T14:32:21.283Z,28.90
2019-01-30T14:32:57.114Z,29.47
2019-01-30T14:33:32.839Z,28.00
2019-01-30T14:34:08.616Z,29.87
2019-01-30T14:34:44.580Z,29.63
2019-01-30T14:35:20.859Z,29.20
2019-01-30T14:35:56.531Z,29.23
2019-01-30T14:36:32.908Z,28.10
2019-01-30T14:37:10.054Z,29.70
2019-01-30T14:37:45.776Z,29.30
2019-01-30T14:38:21.731Z,29.47
2019-01-30T14:38:57.459Z,29.47
2019-01-30T14:39:33.280Z,33.03
2019-01-30T14:40:10.251Z,33.03
2019-01-30T14:40:46.085Z,33.37
2019-01-30T14:41:21.883Z,32.70
2019-01-30T14:41:57.591Z,32.90
2019-01-30T14:42:33.387Z,35.70
2019-01-30T14:43:09.023Z,34.67
2019-01-30T14:43:44.717Z,34.07
2019-01-30T14:44:20.420Z,34.47
2019-01-30T14:44:56.086Z,34.07
2019-01-30T14:45:31.754Z,33.40
2019-01-30T14:46:07.469Z,33.07
2019-01-30T14:46:43.376Z,33.13
2019-01-30T14:47:19.039Z,30.80
2019-01-30T14:47:55.340Z,31.60
2019-01-30T14:48:31.055Z,32.83
2019-01-30T14:49:06.717Z,35.43
2019-01-30T14:49:42.395Z,33.33
2019-01-30T14:50:20.050Z,33.77
2019-01-30T14:50:55.770Z,31.77
2019-01-30T14:51:31.537Z,33.43
2019-01-30T14:52:07.211Z,31.87
2019-01-30T14:52:44.336Z,31.17
2019-01-30T14:53:20.165Z,34.43
2019-01-30T14:53:56.158Z,32.70
2019-01-30T14:54:34.515Z,37.23
2019-01-30T14:55:10.437Z,33.97
2019-01-30T14:55:46.430Z,33.97
2019-01-30T14:56:22.316Z,33.10
2019-01-30T14:56:57.975Z,33.33
2019-01-30T14:57:33.612Z,35.60
2019-01-30T14:58:09.612Z,32.37
2019-01-30T14:58:45.898Z,32.50
2019-01-30T14:59:21.587Z,32.90
2019-01-30T14:59:57.301Z,33.90
2019-01-30T15:00:33.133Z,32.63
2019-01-30T15:01:08.872Z,32.20
2019-01-30T15:01:44.567Z,31.57
2019-01-30T15:02:20.344Z,32.30
2019-01-30T15:02:56.444Z,32.07
2019-01-30T15:03:32.171Z,30.10
2019-01-30T15:04:08.160Z,31.37
2019-01-30T15:04:43.833Z,33.70
2019-01-30T15:05:22.365Z,32.40
2019-01-30T15:05:57.391Z,32.10
2019-01-30T15:06:33.063Z,33.03
2019-01-30T15:07:08.724Z,32.27
2019-01-30T15:07:44.493Z,30.83
2019-01-30T15:08:20.119Z,32.57
2019-01-30T15:08:55.788Z,30.37
2019-01-30T15:09:31.521Z,34.70
2019-01-30T15:10:08.417Z,31.97
2019-01-30T15:10:44.148Z,32.23
2019-01-30T15:11:19.846Z,36.90
2019-01-30T15:11:55.716Z,33.50
2019-01-30T15:12:31.529Z,35.30
2019-01-30T15:13:07.649Z,34.93
2019-01-30T15:13:43.502Z,34.77
2019-01-30T15:14:19.554Z,38.43
2019-01-30T15:14:55.222Z,38.80
2019-01-30T15:15:31.716Z,38.37
2019-01-30T15:16:07.438Z,36.33
2019-01-30T15:16:43.147Z,38.30
2019-01-30T15:17:19.846Z,36.13
2019-01-30T15:17:55.497Z,37.53
2019-01-30T15:18:31.112Z,35.47
2019-01-30T15:19:06.842Z,34.57
2019-01-30T15:19:42.549Z,34.83
2019-01-30T15:20:20.231Z,36.03
2019-01-30T15:20:56.254Z,35.40
2019-01-30T15:21:32.275Z,37.10
2019-01-30T15:22:08.164Z,36.90
2019-01-30T15:22:43.804Z,36.10
2019-01-30T15:23:19.451Z,36.73
2019-01-30T15:23:55.123Z,38.97
2019-01-30T15:24:30.782Z,40.63
2019-01-30T15:25:07.256Z,38.37
2019-01-30T15:25:42.907Z,39.33
2019-01-30T15:26:18.541Z,38.83
2019-01-30T15:26:54.453Z,37.30
2019-01-30T15:27:30.341Z,38.60
2019-01-30T15:28:06.404Z,38.17
2019-01-30T15:28:42.414Z,36.97
2019-01-30T15:29:18.149Z,37.83
2019-01-30T15:29:55.334Z,36.53
2019-01-30T15:30:34.096Z,40.50
2019-01-30T15:31:10.175Z,41.67
2019-01-30T15:31:45.826Z,37.17
2019-01-30T15:32:21.642Z,38.20
2019-01-30T15:32:57.284Z,37.43
2019-01-30T15:33:33.192Z,35.87
2019-01-30T15:34:08.836Z,35.57
2019-01-30T15:34:44.791Z,32.93
2019-01-30T15:35:20.440Z,33.87
2019-01-30T15:35:56.145Z,32.40
2019-01-30T15:36:31.831Z,32.47
2019-01-30T15:37:07.458Z,33.07
2019-01-30T15:37:43.475Z,30.50
2019-01-30T15:38:20.845Z,30.53
2019-01-30T15:38:57.767Z,32.30
2019-01-30T15:39:33.500Z,32.27
2019-01-30T15:40:10.694Z,32.03
2019-01-30T15:40:47.828Z,31.57
2019-01-30T15:41:23.517Z,33.87
2019-01-30T15:41:59.238Z,32.63
2019-01-30T15:42:34.922Z,31.87
2019-01-30T15:43:10.824Z,32.20
2019-01-30T15:43:46.478Z,32.63
2019-01-30T15:44:22.138Z,31.77
2019-01-30T15:44:57.849Z,33.07
2019-01-30T15:45:33.599Z,32.10
2019-01-30T15:46:09.500Z,35.70
2019-01-30T15:46:45.156Z,33.30
2019-01-30T15:47:20.792Z,32.43
2019-01-30T15:47:56.807Z,32.57
2019-01-30T15:48:34.255Z,33.07
2019-01-30T15:49:09.928Z,42.50
2019-01-30T15:49:45.597Z,35.93
2019-01-30T15:50:26.214Z,35.03
2019-01-30T15:51:01.860Z,35.33
2019-01-30T15:51:37.503Z,35.73
2019-01-30T15:52:13.142Z,36.17
2019-01-30T15:52:48.842Z,37.73
2019-01-30T15:53:26.010Z,36.00
2019-01-30T15:54:01.660Z,34.77
2019-01-30T15:54:37.342Z,38.27
2019-01-30T15:55:14.120Z,39.17
2019-01-30T15:55:50.220Z,38.83
2019-01-30T15:56:25.869Z,37.43
2019-01-30T15:57:01.535Z,45.20
2019-01-30T15:57:37.207Z,37.13
2019-01-30T15:58:13.011Z,43.50
2019-01-30T15:58:48.670Z,41.60
2019-01-30T15:59:24.365Z,39.53
2019-01-30T16:00:00.336Z,37.87
2019-01-30T16:00:45.367Z,39.13
2019-01-30T16:01:41.747Z,37.63
2019-01-30T16:02:17.481Z,38.77
2019-01-30T16:02:53.462Z,40.23
2019-01-30T16:03:29.147Z,42.50
2019-01-30T16:04:06.129Z,38.60
2019-01-30T16:04:41.910Z,36.80
2019-01-30T16:05:17.540Z,35.63
2019-01-30T16:05:53.196Z,41.77
2019-01-30T16:06:28.920Z,39.63
2019-01-30T16:07:04.642Z,40.53
2019-01-30T16:07:41.364Z,37.90
2019-01-30T16:08:17.130Z,39.43
2019-01-30T16:08:53.264Z,43.80
2019-01-30T16:09:29.287Z,37.20
2019-01-30T16:10:06.428Z,41.57
2019-01-30T16:10:42.272Z,38.90
2019-01-30T16:11:17.970Z,44.97
2019-01-30T16:11:53.608Z,45.27
2019-01-30T16:12:29.303Z,39.20
2019-01-30T16:13:05.186Z,37.57
2019-01-30T16:13:40.991Z,38.97
2019-01-30T16:14:16.885Z,38.10
2019-01-30T16:14:52.623Z,36.57
2019-01-30T16:15:31.089Z,37.70
2019-01-30T16:16:07.504Z,36.53
2019-01-30T16:16:43.228Z,36.70
2019-01-30T16:17:18.878Z,37.03
2019-01-30T16:17:54.528Z,40.70
2019-01-30T16:18:30.204Z,37.97
2019-01-30T16:19:07.659Z,34.90
2019-01-30T16:19:44.399Z,35.40
2019-01-30T16:20:20.050Z,36.50
2019-01-30T16:20:55.696Z,35.83
2019-01-30T16:21:31.730Z,37.10
2019-01-30T16:22:10.536Z,35.37
2019-01-30T16:22:46.512Z,34.60
2019-01-30T16:23:22.220Z,34.47
2019-01-30T16:23:57.940Z,36.53
2019-01-30T16:24:33.716Z,35.17
2019-01-30T16:25:09.587Z,35.17
2019-01-30T16:25:45.512Z,36.33
2019-01-30T16:26:22.543Z,34.33
2019-01-30T16:26:58.233Z,34.93
2019-01-30T16:27:33.920Z,34.43
2019-01-30T16:28:10.870Z,33.63
2019-01-30T16:28:46.582Z,37.57
2019-01-30T16:29:22.220Z,35.10
2019-01-30T16:29:57.867Z,35.50
2019-01-30T16:30:33.566Z,33.80
2019-01-30T16:31:09.520Z,35.27
2019-01-30T16:31:45.244Z,37.33
2019-01-30T16:32:23.923Z,37.63
2019-01-30T16:33:00.058Z,37.90
2019-01-30T16:33:35.748Z,43.23
2019-01-30T16:34:11.447Z,39.83
2019-01-30T16:34:47.129Z,37.60
2019-01-30T16:35:27.856Z,40.93
2019-01-30T16:36:03.841Z,39.67
2019-01-30T16:36:39.988Z,41.87
2019-01-30T16:37:15.675Z,38.47
2019-01-30T16:37:51.421Z,36.20
2019-01-30T16:38:27.327Z,35.53
2019-01-30T16:39:05.150Z,38.93
2019-01-30T16:39:42.267Z,37.43
2019-01-30T16:40:17.953Z,35.70
2019-01-30T16:40:55.343Z,35.10
2019-01-30T16:41:30.982Z,34.40
2019-01-30T16:42:06.871Z,33.10
2019-01-30T16:42:42.527Z,34.67
2019-01-30T16:43:18.225Z,32.90
2019-01-30T16:43:54.880Z,35.60
2019-01-30T16:44:30.523Z,31.93
2019-01-30T16:45:08.389Z,35.53
2019-01-30T16:45:44.211Z,33.03
2019-01-30T16:46:20.614Z,33.97
2019-01-30T16:46:56.424Z,30.80
2019-01-30T16:47:32.203Z,31.40
2019-01-30T16:48:08.290Z,34.23
2019-01-30T16:48:43.532Z,30.87
2019-01-30T16:49:19.519Z,31.40
2019-01-30T16:49:55.175Z,31.27
2019-01-30T16:50:30.820Z,31.33
2019-01-30T16:51:06.486Z,31.23
2019-01-30T16:51:42.397Z,31.83
2019-01-30T16:52:18.738Z,32.73
2019-01-30T16:52:54.573Z,31.93
2019-01-30T16:53:30.753Z,32.30
2019-01-30T16:54:06.727Z,34.03
2019-01-30T16:54:42.379Z,33.93
2019-01-30T16:55:18.047Z,32.73
2019-01-30T16:55:53.716Z,34.73
2019-01-30T16:56:29.388Z,39.10
2019-01-30T16:57:05.023Z,38.30
2019-01-30T16:57:40.919Z,36.17
2019-01-30T16:58:16.885Z,38.33
2019-01-30T16:58:53.663Z,33.60
2019-01-30T16:59:29.300Z,32.27